createdAt,value
2018-10-11T00:00:17.455Z,24.47
2018-10-11T00:02:49.636Z,25.27
2018-10-11T00:05:20.971Z,23.90
2018-10-11T00:07:52.734Z,24.07
2018-10-11T00:10:23.191Z,24.20
2018-10-11T00:12:53.511Z,24.30
2018-10-11T00:15:23.715Z,23.73
2018-10-11T00:17:54.090Z,23.57
2018-10-11T00:20:25.320Z,23.38
2018-10-11T00:22:58.419Z,23.97
2018-10-11T00:25:28.544Z,23.30
2018-10-11T00:27:58.571Z,24.07
2018-10-11T00:30:29.935Z,22.97
2018-10-11T00:33:00.194Z,23.20
2018-10-11T00:35:31.275Z,22.34
2018-10-11T00:38:02.093Z,23.30
2018-10-11T00:40:33.084Z,23.20
2018-10-11T00:43:04.303Z,22.37
2018-10-11T00:45:35.760Z,22.84
2018-10-11T00:48:05.835Z,22.63
2018-10-11T00:51:41.213Z,22.55
2018-10-11T00:54:11.932Z,22.27
2018-10-11T00:56:42.418Z,23.67
2018-10-11T00:59:12.997Z,23.10
2018-10-11T01:01:43.390Z,22.90
2018-10-11T01:04:13.523Z,22.13
2018-10-11T01:06:43.997Z,22.53
2018-10-11T01:09:14.059Z,23.70
2018-10-11T01:11:44.142Z,23.07
2018-10-11T01:14:14.183Z,23.50
2018-10-11T01:16:44.060Z,22.17
2018-10-11T01:19:13.999Z,22.80
2018-10-11T01:21:43.958Z,21.80
2018-10-11T01:24:14.027Z,23.27
2018-10-11T01:26:44.142Z,22.10
2018-10-11T01:29:14.196Z,21.97
2018-10-11T01:31:44.488Z,21.57
2018-10-11T01:34:14.681Z,22.50
2018-10-11T01:36:44.856Z,22.03
2018-10-11T01:39:14.866Z,23.13
2018-10-11T01:41:44.865Z,22.90
2018-10-11T01:44:14.987Z,21.93
2018-10-11T01:46:44.968Z,21.83
2018-10-11T01:49:15.367Z,21.83
2018-10-11T01:51:45.614Z,22.00
2018-10-11T01:54:15.819Z,21.83
2018-10-11T01:56:45.857Z,21.97
2018-10-11T01:59:15.836Z,22.63
2018-10-11T02:01:45.859Z,21.77
2018-10-11T02:04:15.805Z,21.10
2018-10-11T02:06:46.284Z,22.33
2018-10-11T02:09:16.211Z,22.40
2018-10-11T02:11:46.053Z,22.40
2018-10-11T02:14:16.083Z,21.97
2018-10-11T02:16:45.933Z,23.43
2018-10-11T02:19:15.923Z,23.03
2018-10-11T02:21:45.809Z,21.47
2018-10-11T02:24:15.806Z,23.27
2018-10-11T02:26:45.828Z,24.40
2018-10-11T02:29:15.723Z,26.37
2018-10-11T02:31:46.597Z,28.87
2018-10-11T02:34:17.510Z,24.63
2018-10-11T02:36:48.744Z,24.98
2018-10-11T02:39:18.918Z,23.40
2018-10-11T02:41:49.032Z,24.57
2018-10-11T02:44:19.076Z,24.27
2018-10-11T02:46:49.463Z,24.23
2018-10-11T02:49:19.927Z,24.73
2018-10-11T02:51:49.947Z,24.23
2018-10-11T02:54:19.891Z,24.80
2018-10-11T02:56:50.044Z,24.27
2018-10-11T02:59:29.341Z,24.43
2018-10-11T03:01:59.555Z,25.20
2018-10-11T03:04:32.532Z,24.50
2018-10-11T03:07:03.397Z,24.17
2018-10-11T03:09:33.933Z,26.12
2018-10-11T03:12:03.843Z,24.30
2018-10-11T03:14:33.689Z,25.20
2018-10-11T03:17:03.907Z,23.97
2018-10-11T03:19:33.785Z,23.57
2018-10-11T03:22:03.855Z,24.90
2018-10-11T03:24:33.837Z,26.03
2018-10-11T03:27:03.708Z,25.97
2018-10-11T03:29:33.876Z,26.70
2018-10-11T03:32:03.685Z,25.93
2018-10-11T03:34:33.962Z,25.50
2018-10-11T03:37:03.961Z,25.57
2018-10-11T03:39:33.789Z,25.27
2018-10-11T03:42:03.844Z,25.23
2018-10-11T03:44:33.761Z,26.57
2018-10-11T03:47:03.777Z,26.67
2018-10-11T03:49:33.982Z,26.17
2018-10-11T03:52:03.961Z,24.95
2018-10-11T03:54:34.331Z,25.40
2018-10-11T03:57:04.501Z,25.65
2018-10-11T03:59:34.808Z,26.33
2018-10-11T04:02:04.782Z,27.63
2018-10-11T04:04:34.701Z,26.53
2018-10-11T04:07:04.638Z,25.77
2018-10-11T04:09:34.543Z,26.00
2018-10-11T04:12:04.611Z,25.57
2018-10-11T04:14:34.553Z,25.97
2018-10-11T04:17:04.324Z,25.80
2018-10-11T04:19:34.308Z,26.53
2018-10-11T04:22:04.132Z,26.17
2018-10-11T04:24:34.042Z,26.43
2018-10-11T04:27:04.504Z,26.40
2018-10-11T04:29:34.449Z,27.23
2018-10-11T04:32:04.954Z,28.20
2018-10-11T04:34:35.746Z,28.20
2018-10-11T04:37:06.789Z,27.25
2018-10-11T04:39:37.649Z,26.70
2018-10-11T04:42:09.053Z,27.62
2018-10-11T04:44:39.629Z,28.12
2018-10-11T04:47:10.890Z,29.72
2018-10-11T04:49:41.853Z,31.02
2018-10-11T04:52:12.831Z,28.85
2018-10-11T04:54:45.366Z,29.93
2018-10-11T04:57:15.967Z,30.30
2018-10-11T04:59:45.875Z,31.73
2018-10-11T05:02:16.874Z,31.33
2018-10-11T05:04:47.762Z,31.52
2018-10-11T05:07:18.801Z,32.00
2018-10-11T05:09:49.624Z,32.25
2018-10-11T05:12:20.849Z,32.20
2018-10-11T05:14:52.378Z,30.05
2018-10-11T05:17:22.890Z,30.00
2018-10-11T05:19:53.801Z,32.10
2018-10-11T05:22:24.913Z,32.25
2018-10-11T05:24:55.763Z,30.77
2018-10-11T05:27:26.750Z,31.35
2018-10-11T05:29:57.844Z,31.90
2018-10-11T05:32:29.072Z,31.77
2018-10-11T05:34:59.777Z,30.97
2018-10-11T05:37:30.819Z,30.77
2018-10-11T05:40:02.046Z,32.58
2018-10-11T05:42:33.193Z,35.65
2018-10-11T05:45:22.451Z,36.88
2018-10-11T05:47:52.698Z,32.97
2018-10-11T05:50:22.928Z,32.43
2018-10-11T05:52:53.505Z,31.83
2018-10-11T05:55:23.847Z,32.00
2018-10-11T05:57:54.013Z,31.82
2018-10-11T06:00:24.427Z,32.38
2018-10-11T06:03:00.883Z,32.05
2018-10-11T06:05:31.908Z,32.23
2018-10-11T06:08:02.863Z,32.07
2018-10-11T06:10:36.622Z,35.70
2018-10-11T06:13:07.719Z,33.57
2018-10-11T06:15:38.125Z,38.40
2018-10-11T06:18:08.434Z,34.87
2018-10-11T06:20:38.828Z,36.70
2018-10-11T06:23:08.750Z,35.80
2018-10-11T06:25:38.787Z,36.40
2018-10-11T06:28:09.565Z,36.13
2018-10-11T06:30:39.761Z,43.43
2018-10-11T06:33:09.931Z,44.87
2018-10-11T06:35:40.277Z,46.80
2018-10-11T06:38:10.547Z,45.43
2018-10-11T06:40:40.924Z,43.87
2018-10-11T06:43:11.037Z,44.60
2018-10-11T06:45:41.340Z,44.27
2018-10-11T06:48:11.638Z,46.85
2018-10-11T06:50:43.438Z,44.73
2018-10-11T06:53:14.175Z,42.70
2018-10-11T06:55:44.393Z,43.83
2018-10-11T06:58:14.311Z,44.47
2018-10-11T07:00:46.358Z,43.10
2018-10-11T07:03:16.203Z,46.70
2018-10-11T07:05:46.110Z,45.10
2018-10-11T07:08:16.673Z,44.58
2018-10-11T07:10:46.800Z,43.50
2018-10-11T07:13:16.698Z,43.53
2018-10-11T07:15:46.507Z,42.80
2018-10-11T07:18:16.440Z,44.80
2018-10-11T07:20:46.465Z,44.17
2018-10-11T07:23:16.304Z,41.87
2018-10-11T07:25:46.773Z,43.46
2018-10-11T07:28:16.869Z,43.30
2018-10-11T07:30:46.930Z,43.15
2018-10-11T07:33:16.869Z,41.73
2018-10-11T07:35:47.709Z,43.08
2018-10-11T07:38:18.666Z,40.52
2018-10-11T07:40:49.788Z,42.35
2018-10-11T07:43:20.852Z,41.33
2018-10-11T07:45:51.715Z,41.80
2018-10-11T07:48:23.003Z,41.35
2018-10-11T07:50:53.651Z,44.40
2018-10-11T07:53:24.759Z,45.60
2018-10-11T07:55:55.846Z,42.95
2018-10-11T07:58:26.984Z,39.48
2018-10-11T08:00:57.565Z,35.17
2018-10-11T08:03:28.534Z,37.75
2018-10-11T08:05:59.481Z,34.18
2018-10-11T08:08:30.486Z,32.50
2018-10-11T08:11:01.623Z,29.32
2018-10-11T08:13:32.999Z,34.50
2018-10-11T08:16:03.819Z,32.03
2018-10-11T08:18:34.762Z,30.50
2018-10-11T08:21:04.922Z,31.77
2018-10-11T08:23:35.836Z,32.42
2018-10-11T08:26:06.824Z,31.65
2018-10-11T08:28:37.727Z,30.52
2018-10-11T08:31:09.516Z,30.30
2018-10-11T08:33:39.416Z,31.05
2018-10-11T08:36:10.812Z,32.42
2018-10-11T08:38:42.014Z,30.97
2018-10-11T08:41:12.746Z,31.75
2018-10-11T08:43:43.727Z,30.52
2018-10-11T08:46:14.732Z,30.75
2018-10-11T08:48:46.056Z,28.25
2018-10-11T08:51:16.677Z,29.63
2018-10-11T08:53:46.994Z,28.50
2018-10-11T08:56:18.397Z,27.00
2018-10-11T08:58:48.779Z,27.23
2018-10-11T09:01:19.603Z,27.22
2018-10-11T09:03:50.624Z,25.30
2018-10-11T09:06:21.552Z,25.57
2018-10-11T09:08:52.577Z,23.85
2018-10-11T09:11:23.537Z,24.10
2018-10-11T09:13:54.643Z,24.75
2018-10-11T09:16:25.464Z,24.82
2018-10-11T09:18:56.461Z,24.02
2018-10-11T09:21:27.707Z,22.46
2018-10-11T09:23:58.672Z,24.37
2018-10-11T09:26:29.547Z,23.80
2018-10-11T09:29:00.579Z,24.85
2018-10-11T09:31:31.444Z,22.22
2018-10-11T09:34:02.896Z,23.50
2018-10-11T09:36:33.692Z,22.60
2018-10-11T09:39:05.833Z,22.93
2018-10-11T09:41:35.616Z,21.13
2018-10-11T09:44:06.570Z,21.82
2018-10-11T09:46:37.701Z,21.62
2018-10-11T09:49:08.832Z,19.92
2018-10-11T09:51:39.842Z,20.55
2018-10-11T09:54:10.897Z,21.23
2018-10-11T09:57:21.934Z,19.73
2018-10-11T09:59:51.945Z,19.57
2018-10-11T10:02:22.221Z,19.20
2018-10-11T10:04:53.429Z,19.30
2018-10-11T10:07:23.503Z,20.30
2018-10-11T10:09:57.888Z,20.40
2018-10-11T10:12:33.135Z,18.67
2018-10-11T10:15:03.741Z,18.80
2018-10-11T10:17:33.637Z,18.57
2018-10-11T10:20:04.153Z,18.40
2018-10-11T10:22:33.982Z,18.93
2018-10-11T10:25:03.912Z,18.33
2018-10-11T10:27:33.787Z,17.47
2018-10-11T10:30:08.585Z,17.77
2018-10-11T10:32:38.712Z,16.93
2018-10-11T10:35:08.684Z,16.67
2018-10-11T10:37:38.746Z,17.30
2018-10-11T10:40:08.943Z,17.00
2018-10-11T10:42:38.745Z,15.47
2018-10-11T10:45:08.934Z,15.83
2018-10-11T10:47:38.721Z,16.73
2018-10-11T10:50:08.996Z,17.37
2018-10-11T10:52:38.813Z,15.90
2018-10-11T10:55:08.774Z,15.60
2018-10-11T10:57:38.809Z,15.50
2018-10-11T11:00:09.658Z,14.80
2018-10-11T11:02:39.777Z,14.17
2018-10-11T11:05:09.654Z,14.37
2018-10-11T11:07:39.745Z,13.50
2018-10-11T11:10:09.857Z,14.83
2018-10-11T11:12:39.670Z,14.27
2018-10-11T11:15:09.758Z,14.73
2018-10-11T11:17:39.590Z,14.37
2018-10-11T11:20:09.744Z,14.23
2018-10-11T11:22:39.700Z,13.07
2018-10-11T11:25:09.745Z,13.00
2018-10-11T11:27:39.685Z,13.37
2018-10-11T11:30:09.673Z,13.33
2018-10-11T11:32:39.717Z,12.20
2018-10-11T11:35:09.673Z,12.40
2018-10-11T11:37:39.681Z,13.03
2018-10-11T11:40:09.891Z,12.60
2018-10-11T11:42:39.865Z,13.67
2018-10-11T11:45:10.460Z,12.63
2018-10-11T11:47:40.515Z,12.40
2018-10-11T11:50:10.681Z,13.35
2018-10-11T11:52:40.677Z,13.93
2018-10-11T11:55:10.883Z,13.38
2018-10-11T11:57:41.202Z,13.68
2018-10-11T12:00:11.166Z,13.37
2018-10-11T12:02:41.117Z,12.93
2018-10-11T12:05:11.243Z,12.87
2018-10-11T12:07:41.152Z,12.20
2018-10-11T12:10:11.216Z,11.93
2018-10-11T12:15:37.561Z,11.97
2018-10-11T12:18:08.422Z,12.20
2018-10-11T12:20:39.745Z,11.73
2018-10-11T12:23:10.667Z,11.23
2018-10-11T12:25:40.911Z,11.30
2018-10-11T12:28:10.770Z,11.17
2018-10-11T12:30:40.761Z,10.20
2018-10-11T12:33:10.623Z,11.23
2018-10-11T12:35:40.520Z,10.10
2018-10-11T12:38:10.715Z,8.57
2018-10-11T12:40:40.640Z,7.63
2018-10-11T12:43:10.569Z,8.10
2018-10-11T12:45:42.375Z,7.93
2018-10-11T12:48:12.186Z,7.80
2018-10-11T12:50:42.235Z,8.10
2018-10-11T12:53:12.210Z,8.83
2018-10-11T12:55:42.271Z,7.90
2018-10-11T12:58:12.045Z,8.43
2018-10-11T13:00:42.012Z,8.83
2018-10-11T13:03:11.897Z,8.10
2018-10-11T13:05:41.880Z,8.77
2018-10-11T13:08:11.771Z,8.93
2018-10-11T13:10:41.673Z,8.83
2018-10-11T13:13:12.293Z,8.53
2018-10-11T13:15:42.396Z,9.90
2018-10-11T13:18:12.401Z,9.70
2018-10-11T13:20:42.233Z,8.97
2018-10-11T13:23:15.753Z,8.77
2018-10-11T13:25:42.057Z,8.97
2018-10-11T13:28:12.324Z,9.58
2018-10-11T13:30:42.093Z,9.30
2018-10-11T13:33:12.395Z,10.13
2018-10-11T13:35:42.181Z,9.50
2018-10-11T13:38:12.149Z,10.67
2018-10-11T13:40:42.613Z,10.02
2018-10-11T13:43:12.701Z,9.97
2018-10-11T13:45:42.392Z,9.88
2018-10-11T13:48:12.351Z,9.05
2018-10-11T13:50:42.703Z,9.03
2018-10-11T13:53:17.018Z,8.53
2018-10-11T13:55:50.831Z,9.00
2018-10-11T13:58:15.609Z,8.43
2018-10-11T14:00:47.337Z,8.75
2018-10-11T14:03:17.659Z,8.76
2018-10-11T14:05:48.537Z,8.28
2018-10-11T14:08:19.364Z,8.35
2018-10-11T14:10:50.674Z,7.32
2018-10-11T14:13:21.429Z,7.00
2018-10-11T14:15:53.044Z,7.68
2018-10-11T14:18:23.558Z,7.53
2018-10-11T14:20:54.897Z,6.97
2018-10-11T14:23:25.472Z,7.28
2018-10-11T14:25:56.506Z,7.72
2018-10-11T14:28:27.317Z,6.90
2018-10-11T14:30:58.749Z,7.34
2018-10-11T14:33:29.577Z,6.58
2018-10-11T14:36:00.684Z,7.62
2018-10-11T14:38:31.953Z,7.28
2018-10-11T14:41:02.705Z,7.35
2018-10-11T14:43:33.515Z,6.75
2018-10-11T14:46:04.604Z,6.60
2018-10-11T14:48:35.336Z,7.58
2018-10-11T14:51:06.881Z,7.56
2018-10-11T14:53:37.761Z,8.45
2018-10-11T14:56:08.833Z,10.98
2018-10-11T14:58:39.641Z,11.40
2018-10-11T15:01:10.875Z,21.97
2018-10-11T15:03:41.547Z,24.12
2018-10-11T15:06:12.556Z,18.00
2018-10-11T15:08:43.382Z,15.70
2018-10-11T15:11:14.758Z,10.34
2018-10-11T15:13:45.727Z,11.38
2018-10-11T15:16:16.638Z,11.95
2018-10-11T15:18:47.473Z,13.10
2018-10-11T15:21:18.521Z,13.78
2018-10-11T15:23:49.460Z,13.65
2018-10-11T15:26:20.516Z,12.75
2018-10-11T15:28:51.367Z,9.00
2018-10-11T15:31:22.902Z,7.46
2018-10-11T15:33:53.522Z,6.50
2018-10-11T15:36:24.537Z,6.78
2018-10-11T15:38:56.243Z,6.67
2018-10-11T15:41:26.893Z,6.44
2018-10-11T15:43:57.554Z,6.42
2018-10-11T15:46:28.550Z,6.20
2018-10-11T15:48:59.480Z,6.17
2018-10-11T15:51:32.322Z,7.82
2018-10-11T15:54:02.061Z,6.70
2018-10-11T15:56:32.794Z,7.75
2018-10-11T15:59:03.738Z,8.65
2018-10-11T16:01:34.684Z,8.30
2018-10-11T16:04:05.548Z,8.63
2018-10-11T16:06:36.342Z,8.18
2018-10-11T16:09:09.436Z,8.36
2018-10-11T16:11:39.340Z,7.77
2018-10-11T16:14:10.033Z,8.47
2018-10-11T16:16:40.665Z,7.50
2018-10-11T16:19:11.422Z,7.35
2018-10-11T16:21:42.756Z,7.18
2018-10-11T16:24:13.620Z,7.65
2018-10-11T16:26:44.590Z,12.18
2018-10-11T16:29:15.344Z,15.18
2018-10-11T16:31:46.748Z,17.00
2018-10-11T16:34:17.521Z,12.43
2018-10-11T16:36:48.418Z,13.40
2018-10-11T16:39:19.767Z,12.74
2018-10-11T16:41:50.726Z,9.95
2018-10-11T16:44:22.426Z,9.78
2018-10-11T16:46:52.323Z,9.35
2018-10-11T16:49:23.801Z,8.46
2018-10-11T16:51:54.708Z,9.05
2018-10-11T16:54:25.533Z,8.53
2018-10-11T16:56:58.341Z,9.43
2018-10-11T16:59:28.241Z,11.13
2018-10-11T17:01:58.818Z,14.04
2018-10-11T17:04:29.694Z,16.77
2018-10-11T17:07:00.587Z,25.02
2018-10-11T17:09:31.552Z,21.05
2018-10-11T17:12:02.394Z,18.80
2018-10-11T17:14:33.873Z,18.50
2018-10-11T17:17:04.528Z,18.17
2018-10-11T17:19:35.486Z,23.32
2018-10-11T17:22:06.479Z,20.17
2018-10-11T17:24:37.560Z,15.23
2018-10-11T17:27:08.498Z,12.35
2018-10-11T17:29:39.459Z,12.47
2018-10-11T17:32:10.434Z,14.47
2018-10-11T17:34:41.938Z,14.80
2018-10-11T17:37:12.660Z,12.88
2018-10-11T17:39:43.650Z,11.30
2018-10-11T17:42:14.554Z,10.18
2018-10-11T17:44:45.646Z,11.18
2018-10-11T17:47:15.651Z,11.70
2018-10-11T17:49:46.556Z,11.30
2018-10-11T17:52:17.653Z,13.15
2018-10-11T17:54:52.659Z,12.90
2018-10-11T17:57:22.563Z,13.30
2018-10-11T17:59:52.458Z,14.17
2018-10-11T18:02:23.138Z,15.10
2018-10-11T18:04:55.689Z,15.57
2018-10-11T18:07:25.593Z,14.90
2018-10-11T18:09:55.413Z,18.95
2018-10-11T18:12:25.767Z,31.03
2018-10-11T18:14:56.655Z,29.57
2018-10-11T18:17:27.490Z,19.87
2018-10-11T18:20:00.055Z,17.22
2018-10-11T18:22:30.577Z,14.07
2018-10-11T18:25:00.500Z,12.25
2018-10-11T18:27:31.480Z,11.30
2018-10-11T18:30:03.249Z,10.93
2018-10-11T18:32:33.802Z,11.82
2018-10-11T18:35:04.848Z,12.45
2018-10-11T18:37:35.949Z,12.30
2018-10-11T18:40:07.316Z,11.48
2018-10-11T18:42:37.849Z,12.00
2018-10-11T18:45:10.103Z,10.85
2018-10-11T18:47:40.217Z,12.17
2018-10-11T18:50:10.929Z,12.26
2018-10-11T18:52:42.235Z,12.80
2018-10-11T18:55:12.939Z,11.90
2018-10-11T18:57:43.760Z,11.33
2018-10-11T19:00:14.753Z,11.63
2018-10-11T19:02:45.799Z,11.75
2018-10-11T19:05:16.854Z,9.68
2018-10-11T19:07:48.299Z,9.40
2018-10-11T19:10:18.889Z,9.84
2018-10-11T19:12:49.684Z,10.72
2018-10-11T19:15:20.687Z,10.43
2018-10-11T19:17:51.555Z,10.90
2018-10-11T19:20:22.486Z,11.05
2018-10-11T19:22:53.791Z,11.72
2018-10-11T19:25:24.950Z,12.30
2018-10-11T19:27:55.685Z,11.97
2018-10-11T19:30:26.549Z,12.35
2018-10-11T19:32:57.558Z,12.35
2018-10-11T19:35:28.648Z,12.28
2018-10-11T19:37:59.586Z,11.70
2018-10-11T19:40:30.640Z,12.37
2018-10-11T19:43:01.551Z,12.35
2018-10-11T19:45:32.600Z,11.95
2018-10-11T19:48:03.533Z,12.78
2018-10-11T19:50:34.803Z,12.40
2018-10-11T19:53:06.071Z,12.28
2018-10-11T19:55:37.006Z,12.05
2018-10-11T19:58:08.151Z,13.75
2018-10-11T20:00:38.894Z,14.58
2018-10-11T20:03:09.754Z,16.30
2018-10-11T20:05:40.713Z,18.92
2018-10-11T20:08:11.687Z,15.72
2018-10-11T20:10:42.903Z,15.85
2018-10-11T20:13:13.714Z,16.23
2018-10-11T20:15:44.708Z,13.40
2018-10-11T20:18:15.568Z,13.20
2018-10-11T20:20:46.610Z,13.18
2018-10-11T20:23:17.904Z,12.58
2018-10-11T20:25:48.754Z,12.60
2018-10-11T20:28:19.698Z,12.93
2018-10-11T20:30:50.684Z,12.95
2018-10-11T20:33:21.776Z,12.85
2018-10-11T20:35:52.907Z,12.43
2018-10-11T20:38:23.681Z,13.05
2018-10-11T20:40:55.564Z,15.15
2018-10-11T20:43:25.873Z,16.85
2018-10-11T20:45:56.907Z,15.93
2018-10-11T20:48:27.798Z,17.20
2018-10-11T20:50:58.861Z,16.37
2018-10-11T20:53:29.721Z,16.65
2018-10-11T20:56:00.711Z,17.55
2018-10-11T20:58:31.672Z,16.52
2018-10-11T21:01:02.719Z,16.32
2018-10-11T21:03:33.953Z,15.78
2018-10-11T21:06:04.881Z,17.02
2018-10-11T21:08:35.680Z,15.72
2018-10-11T21:11:06.672Z,17.62
2018-10-11T21:13:37.538Z,17.20
2018-10-11T21:16:08.570Z,17.00
2018-10-11T21:18:39.411Z,17.30
2018-10-11T21:21:10.816Z,19.28
2018-10-11T21:23:41.626Z,19.05
2018-10-11T21:26:12.680Z,18.77
2018-10-11T21:28:43.607Z,19.85
2018-10-11T21:31:14.760Z,21.33
2018-10-11T21:33:45.625Z,23.22
2018-10-11T21:36:16.525Z,25.77
2018-10-11T21:38:47.711Z,26.93
2018-10-11T21:41:18.628Z,29.07
2018-10-11T21:43:49.509Z,28.47
2018-10-11T21:46:20.671Z,29.18
2018-10-11T21:48:51.794Z,26.97
2018-10-11T21:51:22.714Z,25.27
2018-10-11T21:53:53.474Z,23.52
2018-10-11T21:56:24.871Z,24.68
2018-10-11T21:58:55.843Z,25.12
2018-10-11T22:01:26.840Z,27.42
2018-10-11T22:03:57.825Z,29.57
2018-10-11T22:06:28.983Z,31.42
2018-10-11T22:08:59.660Z,28.83
2018-10-11T22:11:30.632Z,26.15
2018-10-11T22:14:01.549Z,24.45
2018-10-11T22:16:32.554Z,25.40
2018-10-11T22:19:03.478Z,24.60
2018-10-11T22:21:34.861Z,26.16
2018-10-11T22:24:05.727Z,27.45
2018-10-11T22:26:36.768Z,26.82
2018-10-11T22:29:08.711Z,25.97
2018-10-11T22:31:38.668Z,25.10
2018-10-11T22:34:09.592Z,25.85
2018-10-11T22:36:40.656Z,27.30
2018-10-11T22:39:12.448Z,28.30
2018-10-11T22:41:42.870Z,28.05
2018-10-11T22:44:20.326Z,28.10
2018-10-11T22:46:50.288Z,28.53
2018-10-11T22:49:20.114Z,29.07
2018-10-11T22:51:49.974Z,29.87
2018-10-11T22:54:20.051Z,31.80
2018-10-11T22:56:50.476Z,31.37
2018-10-11T22:59:20.612Z,30.97
2018-10-11T23:01:50.486Z,31.30
2018-10-11T23:04:21.470Z,31.12
2018-10-11T23:06:52.716Z,31.80
2018-10-11T23:09:23.609Z,31.40
2018-10-11T23:11:54.469Z,32.25
2018-10-11T23:14:25.800Z,32.88
2018-10-11T23:16:56.619Z,33.48
2018-10-11T23:19:27.932Z,34.88
2018-10-11T23:21:58.599Z,34.40
2018-10-11T23:24:29.502Z,35.35
2018-10-11T23:27:00.346Z,33.83
2018-10-11T23:29:31.905Z,34.98
2018-10-11T23:32:02.790Z,35.55
2018-10-11T23:34:34.228Z,34.64
2018-10-11T23:37:04.804Z,33.36
2018-10-11T23:39:35.785Z,33.65
2018-10-11T23:42:06.670Z,33.58
2018-10-11T23:44:37.724Z,34.08
2018-10-11T23:47:08.641Z,33.42
2018-10-11T23:49:39.579Z,33.60
2018-10-11T23:52:10.417Z,35.55
2018-10-11T23:54:42.038Z,34.54
2018-10-11T23:57:12.687Z,34.60
2018-10-11T23:59:43.696Z,34.50
